Time;durP1;ratioP1;P1;durP2;ratioP2;P2;SDS_P1;SDS_P2;PMS_P1;PMS_P2;Temp;Humidity;BMP_temperature;BMP_pressure;BME280_temperature;BME280_humidity;BME280_pressure;Samples;Min_cycle;Max_cycle;Signal;HPM_P1;HPM_P2
2024/01/14 00:01:53;;;;;;;37.07;13.53;;;;;;;;;;6272654;22;20019;-45
2024/01/14 00:04:21;;;;;;;32.45;14.90;;;;;;;;;;6289919;22;20015;-44
2024/01/14 00:06:49;;;;;;;31.67;13.07;;;;;;;;;;6269501;22;20413;-44
2024/01/14 00:09:18;;;;;;;33.95;13.60;;;;;;;;;;6284052;22;20019;-43
2024/01/14 00:11:45;;;;;;;37.97;15.57;;;;;;;;;;6283347;22;20438;-43
2024/01/14 00:14:13;;;;;;;33.33;13.97;;;;;;;;;;6280623;22;20019;-43
2024/01/14 00:16:41;;;;;;;33.53;14.38;;;;;;;;;;6278201;22;20446;-44
2024/01/14 00:19:10;;;;;;;33.63;13.23;;;;;;;;;;6280586;22;20101;-44
2024/01/14 00:21:38;;;;;;;33.00;14.30;;;;;;;;;;6273642;22;20613;-44
2024/01/14 00:24:06;;;;;;;34.58;15.02;;;;;;;;;;6280412;22;20446;-43
2024/01/14 00:26:34;;;;;;;33.80;14.57;;;;;;;;;;6272839;22;20574;-44
2024/01/14 00:29:03;;;;;;;37.22;15.13;;;;;;;;;;6273397;22;20015;-44
2024/01/14 00:31:30;;;;;;;32.47;14.38;;;;;;;;;;6280805;22;20011;-46
2024/01/14 00:33:58;;;;;;;39.50;14.85;;;;;;;;;;6209526;22;20019;-43
2024/01/14 00:36:28;;;;;;;37.92;15.20;;;;;;;;;;6246730;22;20106;-43
2024/01/14 00:38:55;;;;;;;39.03;15.13;;;;;;;;;;6277305;22;20447;-45
2024/01/14 00:41:23;;;;;;;32.65;14.48;;;;;;;;;;6280135;22;20019;-44
2024/01/14 00:43:51;;;;;;;36.25;14.90;;;;;;;;;;6280729;22;20592;-43
2024/01/14 00:46:19;;;;;;;42.63;15.60;;;;;;;;;;6278719;22;20037;-44
2024/01/14 00:48:47;;;;;;;41.85;16.08;;;;;;;;;;6285885;22;20019;-44
2024/01/14 00:51:17;;;;;;;37.57;15.23;;;;;;;;;;6284045;22;20098;-44
2024/01/14 00:53:46;;;;;;;39.20;14.95;;;;;;;;;;6269133;22;20023;-45
2024/01/14 00:56:14;;;;;;;36.40;14.13;;;;;;;;;;6279875;22;20019;-43
2024/01/14 00:58:41;;;;;;;38.72;15.93;;;;;;;;;;6272983;22;20023;-46
2024/01/14 01:01:09;;;;;;;35.85;15.25;;;;;;;;;;6248698;22;20016;-44
2024/01/14 01:03:37;;;;;;;39.00;16.03;;;;;;;;;;6272943;22;20023;-43
2024/01/14 01:06:05;;;;;;;35.95;14.27;;;;;;;;;;6276308;22;20015;-44
2024/01/14 01:08:33;;;;;;;38.25;15.25;;;;;;;;;;6243596;22;20639;-43
2024/01/14 01:11:02;;;;;;;42.35;14.73;;;;;;;;;;6275362;22;20567;-45
2024/01/14 01:13:30;;;;;;;35.17;14.57;;;;;;;;;;6270338;22;20023;-43
2024/01/14 01:15:58;;;;;;;41.30;15.13;;;;;;;;;;6247697;22;20019;-44
2024/01/14 01:18:25;;;;;;;36.08;15.23;;;;;;;;;;6268701;22;20023;-43
2024/01/14 01:20:53;;;;;;;36.33;14.55;;;;;;;;;;6269787;22;20617;-44
2024/01/14 01:23:21;;;;;;;36.42;14.57;;;;;;;;;;6270134;22;20022;-44
2024/01/14 01:25:49;;;;;;;36.63;15.15;;;;;;;;;;6276704;22;20090;-42
2024/01/14 01:28:18;;;;;;;36.03;14.97;;;;;;;;;;6274452;22;20444;-44
2024/01/14 01:30:46;;;;;;;41.33;15.98;;;;;;;;;;6274316;22;20082;-44
2024/01/14 01:33:14;;;;;;;37.58;15.57;;;;;;;;;;6246465;22;20072;-44
2024/01/14 01:35:42;;;;;;;36.78;14.55;;;;;;;;;;6254696;22;20314;-46
2024/01/14 01:38:10;;;;;;;39.40;15.75;;;;;;;;;;6270326;22;20520;-44
2024/01/14 01:40:38;;;;;;;36.77;14.97;;;;;;;;;;6272785;22;20023;-43
2024/01/14 01:43:05;;;;;;;41.15;15.23;;;;;;;;;;6272961;22;20023;-44
2024/01/14 01:45:35;;;;;;;38.75;14.98;;;;;;;;;;6278639;22;20165;-43
2024/01/14 01:48:04;;;;;;;39.80;15.98;;;;;;;;;;6278083;22;20022;-43
2024/01/14 01:50:33;;;;;;;33.78;15.00;;;;;;;;;;6270765;22;20053;-44
2024/01/14 01:53:01;;;;;;;29.70;13.37;;;;;;;;;;6276790;22;20026;-44
2024/01/14 01:55:29;;;;;;;39.92;15.85;;;;;;;;;;6272507;22;20023;-44
2024/01/14 01:57:57;;;;;;;37.95;15.73;;;;;;;;;;6246008;22;20011;-43
2024/01/14 02:00:25;;;;;;;38.00;14.65;;;;;;;;;;6275336;22;20341;-43
2024/01/14 02:02:55;;;;;;;40.45;15.73;;;;;;;;;;6277424;22;20019;-44
2024/01/14 02:05:23;;;;;;;40.50;15.07;;;;;;;;;;6270642;22;20015;-44
2024/01/14 02:07:50;;;;;;;36.95;14.82;;;;;;;;;;6269202;22;20410;-46
2024/01/14 02:10:18;;;;;;;42.22;15.30;;;;;;;;;;6270978;22;20019;-43
2024/01/14 02:12:46;;;;;;;36.05;15.27;;;;;;;;;;6275594;22;20030;-44
2024/01/14 02:15:14;;;;;;;39.00;16.70;;;;;;;;;;6269655;22;20107;-45
2024/01/14 02:17:41;;;;;;;39.97;15.13;;;;;;;;;;6278987;22;20081;-44
2024/01/14 02:20:14;;;;;;;36.75;15.27;;;;;;;;;;6275998;22;20393;-45
2024/01/14 02:22:45;;;;;;;35.60;14.02;;;;;;;;;;6275014;22;20019;-46
2024/01/14 02:25:14;;;;;;;41.15;16.27;;;;;;;;;;6271774;22;20030;-44
2024/01/14 02:27:41;;;;;;;38.92;14.85;;;;;;;;;;6270871;22;20521;-46
2024/01/14 02:30:10;;;;;;;40.17;15.63;;;;;;;;;;6267382;22;20019;-45
2024/01/14 02:32:38;;;;;;;42.05;17.25;;;;;;;;;;6220592;22;20371;-44
2024/01/14 02:35:07;;;;;;;35.95;14.77;;;;;;;;;;6240584;22;20023;-45
2024/01/14 02:37:34;;;;;;;36.17;14.40;;;;;;;;;;6243813;22;20030;-43
2024/01/14 02:40:02;;;;;;;38.47;15.23;;;;;;;;;;6269479;22;20018;-44
2024/01/14 02:42:32;;;;;;;38.77;15.27;;;;;;;;;;6279467;22;20451;-44
2024/01/14 02:45:00;;;;;;;39.38;15.45;;;;;;;;;;6270747;22;20030;-44
2024/01/14 02:47:28;;;;;;;35.65;14.93;;;;;;;;;;6274528;22;20042;-44
2024/01/14 02:49:56;;;;;;;40.92;15.27;;;;;;;;;;6273553;22;20450;-46
2024/01/14 02:52:24;;;;;;;38.78;15.52;;;;;;;;;;6272297;22;20021;-43
2024/01/14 02:54:55;;;;;;;43.67;15.77;;;;;;;;;;6279170;22;20053;-47
2024/01/14 02:57:22;;;;;;;40.25;14.88;;;;;;;;;;6277479;22;20015;-44
2024/01/14 02:59:51;;;;;;;37.38;15.23;;;;;;;;;;6285716;22;20030;-43
2024/01/14 03:02:21;;;;;;;43.67;15.95;;;;;;;;;;6285766;22;20030;-42
2024/01/14 03:04:48;;;;;;;43.03;14.98;;;;;;;;;;6289776;22;20030;-43
2024/01/14 03:07:16;;;;;;;45.23;15.00;;;;;;;;;;6271868;22;20315;-43
2024/01/14 03:09:44;;;;;;;40.70;15.80;;;;;;;;;;6286208;22;20016;-44
2024/01/14 03:12:12;;;;;;;39.85;16.48;;;;;;;;;;6257859;22;20015;-43
2024/01/14 03:14:39;;;;;;;38.08;15.48;;;;;;;;;;6282414;22;20566;-43
2024/01/14 03:17:09;;;;;;;40.95;16.25;;;;;;;;;;6285158;22;20020;-43
2024/01/14 03:19:36;;;;;;;35.93;15.63;;;;;;;;;;6289459;22;20022;-43
2024/01/14 03:22:04;;;;;;;40.65;14.43;;;;;;;;;;6286156;22;20073;-43
2024/01/14 03:24:33;;;;;;;37.88;14.98;;;;;;;;;;6256358;22;20415;-42
2024/01/14 03:27:00;;;;;;;33.85;13.43;;;;;;;;;;6287805;22;20835;-44
2024/01/14 03:29:28;;;;;;;39.75;14.82;;;;;;;;;;6284143;22;20385;-43
2024/01/14 03:31:56;;;;;;;42.67;15.73;;;;;;;;;;6284284;22;20022;-43
2024/01/14 03:34:25;;;;;;;41.13;14.75;;;;;;;;;;6220696;22;20015;-43
2024/01/14 03:36:53;;;;;;;34.25;14.25;;;;;;;;;;6236017;22;20015;-43
2024/01/14 03:39:22;;;;;;;37.83;14.18;;;;;;;;;;6289547;22;20022;-43
2024/01/14 03:41:50;;;;;;;36.35;13.60;;;;;;;;;;6285627;22;20041;-43
2024/01/14 03:44:19;;;;;;;41.73;15.07;;;;;;;;;;6280014;22;20019;-43
2024/01/14 03:46:47;;;;;;;36.65;14.00;;;;;;;;;;6255969;22;20019;-42
2024/01/14 03:49:15;;;;;;;38.95;14.18;;;;;;;;;;6285649;22;20015;-43
2024/01/14 03:51:44;;;;;;;37.72;13.73;;;;;;;;;;6284232;22;20085;-43
2024/01/14 03:54:12;;;;;;;37.20;14.50;;;;;;;;;;6261488;22;20283;-43
2024/01/14 03:56:39;;;;;;;35.77;13.90;;;;;;;;;;6278463;22;20505;-43
2024/01/14 03:59:07;;;;;;;35.50;14.50;;;;;;;;;;6243446;22;20019;-43
2024/01/14 04:01:35;;;;;;;40.90;15.35;;;;;;;;;;6250614;22;20016;-43
2024/01/14 04:04:03;;;;;;;38.97;15.93;;;;;;;;;;6258519;22;20015;-44
2024/01/14 04:06:31;;;;;;;36.40;13.82;;;;;;;;;;6250404;22;20866;-45
2024/01/14 04:09:01;;;;;;;38.80;14.97;;;;;;;;;;6252140;22;20019;-44
2024/01/14 04:11:29;;;;;;;35.90;14.15;;;;;;;;;;6256462;22;20020;-44
2024/01/14 04:13:56;;;;;;;38.13;14.38;;;;;;;;;;6210334;22;20023;-43
2024/01/14 04:16:30;;;;;;;38.15;14.48;;;;;;;;;;6245064;22;20031;-43
2024/01/14 04:18:59;;;;;;;39.28;14.75;;;;;;;;;;6252724;22;20077;-45
2024/01/14 04:21:27;;;;;;;39.70;15.00;;;;;;;;;;6254485;22;20494;-43
2024/01/14 04:23:55;;;;;;;37.97;14.93;;;;;;;;;;6253053;22;20012;-43
2024/01/14 04:26:24;;;;;;;42.13;15.63;;;;;;;;;;6256495;22;20051;-45
2024/01/14 04:28:52;;;;;;;36.33;14.70;;;;;;;;;;6230081;22;20347;-43
2024/01/14 04:31:19;;;;;;;39.47;14.93;;;;;;;;;;6249082;22;20020;-43
2024/01/14 04:33:49;;;;;;;40.10;16.60;;;;;;;;;;6190315;22;20675;-43
2024/01/14 04:36:17;;;;;;;36.58;15.55;;;;;;;;;;6233776;22;20015;-42
2024/01/14 04:38:45;;;;;;;40.50;15.95;;;;;;;;;;6245659;22;20051;-44
2024/01/14 04:41:13;;;;;;;37.63;15.45;;;;;;;;;;6253371;22;20331;-43
2024/01/14 04:43:42;;;;;;;37.67;15.40;;;;;;;;;;6255245;22;20018;-43
2024/01/14 04:46:11;;;;;;;36.90;14.97;;;;;;;;;;6255193;22;20031;-44
2024/01/14 04:48:38;;;;;;;44.97;14.95;;;;;;;;;;6260306;22;20038;-43
2024/01/14 04:51:07;;;;;;;40.38;14.55;;;;;;;;;;6254510;22;20447;-44
2024/01/14 04:53:35;;;;;;;37.35;13.60;;;;;;;;;;6232905;22;20099;-43
2024/01/14 04:56:06;;;;;;;40.92;15.27;;;;;;;;;;6252533;22;20465;-43
2024/01/14 04:58:34;;;;;;;43.07;14.67;;;;;;;;;;6263393;22;20015;-45
2024/01/14 05:01:03;;;;;;;40.35;15.18;;;;;;;;;;6289571;22;20015;-45
2024/01/14 05:03:31;;;;;;;40.67;15.25;;;;;;;;;;6284365;22;20503;-43
2024/01/14 05:05:58;;;;;;;36.45;15.38;;;;;;;;;;6290552;22;20094;-44
2024/01/14 05:08:26;;;;;;;36.53;12.80;;;;;;;;;;6284901;22;20023;-45
2024/01/14 05:10:54;;;;;;;39.20;14.40;;;;;;;;;;6287257;22;20035;-45
2024/01/14 05:13:22;;;;;;;40.22;16.40;;;;;;;;;;6287064;22;20086;-47
2024/01/14 05:15:50;;;;;;;38.85;14.55;;;;;;;;;;6283896;22;20529;-43
2024/01/14 05:18:21;;;;;;;40.35;15.43;;;;;;;;;;6288141;22;20442;-45
2024/01/14 05:20:49;;;;;;;42.92;15.77;;;;;;;;;;6284060;22;20018;-45
2024/01/14 05:23:17;;;;;;;42.47;15.00;;;;;;;;;;6282465;22;20389;-45
2024/01/14 05:25:44;;;;;;;41.28;14.98;;;;;;;;;;6290544;22;20023;-45
2024/01/14 05:28:12;;;;;;;42.03;14.32;;;;;;;;;;6283188;22;20019;-45
2024/01/14 05:30:40;;;;;;;41.35;14.35;;;;;;;;;;6287025;22;20023;-47
2024/01/14 05:33:08;;;;;;;45.38;16.20;;;;;;;;;;6251226;22;20249;-43
2024/01/14 05:35:37;;;;;;;40.90;16.23;;;;;;;;;;6268335;22;20022;-45
2024/01/14 05:38:05;;;;;;;40.33;14.68;;;;;;;;;;6278473;22;20029;-45
2024/01/14 05:40:32;;;;;;;41.53;14.20;;;;;;;;;;6287413;22;20011;-45
2024/01/14 05:43:00;;;;;;;38.65;15.40;;;;;;;;;;6283891;22;20073;-45
2024/01/14 05:45:28;;;;;;;45.80;15.75;;;;;;;;;;6289639;22;20019;-45
2024/01/14 05:47:56;;;;;;;46.73;15.13;;;;;;;;;;6279127;22;20015;-45
2024/01/14 05:50:24;;;;;;;41.47;15.15;;;;;;;;;;6274272;22;20126;-46
2024/01/14 05:52:53;;;;;;;39.92;15.55;;;;;;;;;;6274488;22;20023;-45
2024/01/14 05:55:23;;;;;;;37.65;14.60;;;;;;;;;;6274114;22;20496;-45
2024/01/14 05:57:50;;;;;;;41.72;15.15;;;;;;;;;;6277946;22;20042;-43
2024/01/14 06:00:22;;;;;;;42.43;16.63;;;;;;;;;;6241528;22;20803;-44
2024/01/14 06:02:50;;;;;;;44.22;16.38;;;;;;;;;;6277057;22;20408;-45
2024/01/14 06:05:18;;;;;;;37.20;15.15;;;;;;;;;;6270230;22;20457;-45
2024/01/14 06:07:50;;;;;;;43.10;16.05;;;;;;;;;;6278150;22;20021;-45
2024/01/14 06:10:19;;;;;;;41.90;14.07;;;;;;;;;;6269054;22;20447;-43
2024/01/14 06:12:47;;;;;;;39.70;15.03;;;;;;;;;;6275198;22;20022;-43
2024/01/14 06:15:15;;;;;;;42.50;16.35;;;;;;;;;;6269503;22;20039;-42
2024/01/14 06:17:43;;;;;;;40.20;15.23;;;;;;;;;;6281545;22;20015;-45
2024/01/14 06:20:11;;;;;;;40.88;14.70;;;;;;;;;;6278917;22;20342;-45
2024/01/14 06:22:39;;;;;;;47.83;16.38;;;;;;;;;;6284037;22;20354;-48
2024/01/14 06:25:08;;;;;;;37.53;16.33;;;;;;;;;;6273541;22;20261;-45
2024/01/14 06:27:37;;;;;;;38.85;13.77;;;;;;;;;;6282491;22;20019;-45
2024/01/14 06:30:07;;;;;;;42.85;15.60;;;;;;;;;;6271845;22;20442;-45
2024/01/14 06:32:35;;;;;;;42.33;15.75;;;;;;;;;;6252225;22;20478;-45
2024/01/14 06:35:03;;;;;;;44.83;15.77;;;;;;;;;;6238366;22;20026;-46
2024/01/14 06:37:31;;;;;;;40.87;14.67;;;;;;;;;;6270597;22;20072;-43
2024/01/14 06:39:59;;;;;;;40.83;14.68;;;;;;;;;;6246554;22;20015;-43
2024/01/14 06:42:28;;;;;;;40.45;14.82;;;;;;;;;;6274479;22;20093;-45
2024/01/14 06:44:57;;;;;;;40.03;14.40;;;;;;;;;;6275098;22;20462;-45
2024/01/14 06:47:25;;;;;;;44.35;15.68;;;;;;;;;;6265560;22;20023;-44
2024/01/14 06:49:54;;;;;;;39.70;14.90;;;;;;;;;;6275755;22;20015;-45
2024/01/14 06:52:37;;;;;;;43.38;15.35;;;;;;;;;;6273859;22;20015;-44
2024/01/14 06:55:05;;;;;;;39.22;13.88;;;;;;;;;;6279196;22;20022;-44
2024/01/14 06:57:33;;;;;;;45.80;15.25;;;;;;;;;;6275643;22;20023;-43
2024/01/14 07:00:04;;;;;;;39.97;13.90;;;;;;;;;;6287985;22;20015;-44
2024/01/14 07:02:32;;;;;;;39.57;14.23;;;;;;;;;;6266586;22;20019;-45
2024/01/14 07:05:00;;;;;;;40.58;14.75;;;;;;;;;;6274639;22;20559;-44
2024/01/14 07:07:28;;;;;;;46.05;16.50;;;;;;;;;;6280674;22;20458;-41
2024/01/14 07:09:56;;;;;;;41.22;15.02;;;;;;;;;;6277225;22;20019;-44
2024/01/14 07:12:24;;;;;;;39.85;15.70;;;;;;;;;;6282819;22;20049;-47
2024/01/14 07:14:53;;;;;;;37.43;14.37;;;;;;;;;;6276029;22;20015;-44
2024/01/14 07:17:22;;;;;;;38.03;13.68;;;;;;;;;;6278825;22;20019;-46
2024/01/14 07:19:50;;;;;;;41.55;14.85;;;;;;;;;;6285993;22;20025;-45
2024/01/14 07:22:18;;;;;;;39.22;14.10;;;;;;;;;;6267202;22;20583;-44
2024/01/14 07:24:46;;;;;;;37.95;14.88;;;;;;;;;;6277835;22;20018;-44
2024/01/14 07:27:14;;;;;;;43.23;15.57;;;;;;;;;;6248785;22;20045;-44
2024/01/14 07:29:42;;;;;;;43.83;15.10;;;;;;;;;;6269690;22;20039;-44
2024/01/14 07:32:10;;;;;;;42.72;15.07;;;;;;;;;;6282054;22;20019;-45
2024/01/14 07:34:39;;;;;;;38.92;13.57;;;;;;;;;;6214293;22;20018;-44
2024/01/14 07:37:06;;;;;;;38.65;13.95;;;;;;;;;;6279666;22;20026;-43
2024/01/14 07:39:34;;;;;;;41.23;13.70;;;;;;;;;;6281316;22;20015;-43
2024/01/14 07:42:02;;;;;;;43.30;14.57;;;;;;;;;;6286536;22;20461;-44
2024/01/14 07:44:30;;;;;;;39.35;13.90;;;;;;;;;;6277956;22;20134;-44
2024/01/14 07:46:58;;;;;;;38.15;13.55;;;;;;;;;;6286588;22;20023;-43
2024/01/14 07:49:25;;;;;;;38.00;14.35;;;;;;;;;;6278858;22;20023;-43
2024/01/14 07:51:55;;;;;;;41.77;15.03;;;;;;;;;;6279956;22;20023;-45
2024/01/14 07:54:23;;;;;;;41.55;13.80;;;;;;;;;;6270673;22;20068;-45
2024/01/14 07:56:50;;;;;;;42.55;14.93;;;;;;;;;;6253882;22;20454;-43
2024/01/14 07:59:20;;;;;;;47.03;15.43;;;;;;;;;;6252059;22;20350;-44
2024/01/14 08:01:49;;;;;;;40.70;14.40;;;;;;;;;;6276543;22;20446;-45
2024/01/14 08:04:17;;;;;;;38.73;14.13;;;;;;;;;;6275069;22;20015;-45
2024/01/14 08:06:44;;;;;;;39.08;13.95;;;;;;;;;;6272980;22;20015;-44
2024/01/14 08:09:14;;;;;;;38.55;13.68;;;;;;;;;;6285703;22;20630;-45
2024/01/14 08:11:42;;;;;;;38.60;14.27;;;;;;;;;;6281121;22;20038;-43
2024/01/14 08:14:09;;;;;;;40.58;14.15;;;;;;;;;;6286765;22;20519;-43
2024/01/14 08:16:37;;;;;;;44.70;14.17;;;;;;;;;;6284431;22;20016;-44
2024/01/14 08:19:05;;;;;;;42.55;14.13;;;;;;;;;;6278588;22;20020;-43
2024/01/14 08:21:37;;;;;;;41.15;14.70;;;;;;;;;;6279345;22;20019;-44
2024/01/14 08:24:05;;;;;;;39.97;14.52;;;;;;;;;;6286800;22;20019;-45
2024/01/14 08:26:42;;;;;;;39.17;14.00;;;;;;;;;;6280430;22;20019;-44
2024/01/14 08:29:12;;;;;;;42.37;14.40;;;;;;;;;;6287380;22;20015;-44
2024/01/14 08:31:53;;;;;;;36.03;13.40;;;;;;;;;;6279257;22;20011;-44
2024/01/14 08:34:21;;;;;;;39.40;13.68;;;;;;;;;;6175977;22;20026;-43
2024/01/14 08:36:48;;;;;;;37.53;12.73;;;;;;;;;;6279924;22;20046;-44
2024/01/14 08:39:16;;;;;;;41.20;12.80;;;;;;;;;;6264518;22;20041;-45
2024/01/14 08:41:46;;;;;;;40.17;14.53;;;;;;;;;;6283876;22;20023;-44
2024/01/14 08:44:14;;;;;;;41.88;13.32;;;;;;;;;;6277829;22;20605;-43
2024/01/14 08:46:44;;;;;;;43.03;12.95;;;;;;;;;;6284782;22;20019;-44
2024/01/14 08:49:11;;;;;;;36.33;13.57;;;;;;;;;;6277603;22;20015;-44
2024/01/14 08:51:39;;;;;;;39.83;13.52;;;;;;;;;;6284586;22;20011;-45
2024/01/14 08:54:07;;;;;;;43.53;13.83;;;;;;;;;;6278291;22;20294;-44
2024/01/14 08:56:35;;;;;;;40.58;12.88;;;;;;;;;;6286654;22;20043;-44
2024/01/14 08:59:04;;;;;;;36.42;11.88;;;;;;;;;;6275840;22;20011;-43
2024/01/14 09:01:32;;;;;;;37.85;13.65;;;;;;;;;;6257939;22;20450;-45
2024/01/14 09:04:00;;;;;;;39.28;12.93;;;;;;;;;;6278684;22;20046;-43
2024/01/14 09:06:28;;;;;;;40.27;15.97;;;;;;;;;;6279172;22;20023;-43
2024/01/14 09:08:55;;;;;;;41.45;13.38;;;;;;;;;;6281095;22;20427;-44
2024/01/14 09:11:24;;;;;;;37.80;12.90;;;;;;;;;;6279523;22;20110;-43
2024/01/14 09:13:51;;;;;;;38.78;14.25;;;;;;;;;;6286124;22;20221;-45
2024/01/14 09:16:20;;;;;;;34.58;12.85;;;;;;;;;;6282147;22;20084;-43
2024/01/14 09:18:48;;;;;;;37.80;13.77;;;;;;;;;;6278154;22;20015;-46
2024/01/14 09:21:16;;;;;;;41.60;13.82;;;;;;;;;;6275948;22;20023;-44
2024/01/14 09:23:43;;;;;;;41.33;12.48;;;;;;;;;;6280260;22;20848;-45
2024/01/14 09:26:12;;;;;;;38.90;12.88;;;;;;;;;;6284672;22;20023;-47
2024/01/14 09:28:40;;;;;;;37.65;13.10;;;;;;;;;;6285591;22;20023;-47
2024/01/14 09:31:08;;;;;;;38.77;13.27;;;;;;;;;;6246476;22;20019;-43
2024/01/14 09:33:37;;;;;;;36.88;13.32;;;;;;;;;;6246435;22;20034;-44
2024/01/14 09:36:12;;;;;;;35.25;13.07;;;;;;;;;;6268082;22;20840;-45
2024/01/14 09:38:41;;;;;;;40.80;14.27;;;;;;;;;;6284098;22;20073;-44
2024/01/14 09:41:13;;;;;;;36.17;13.80;;;;;;;;;;6277407;22;20019;-44
2024/01/14 09:43:44;;;;;;;37.20;13.43;;;;;;;;;;6283754;22;20443;-45
2024/01/14 09:46:12;;;;;;;44.40;13.45;;;;;;;;;;6278095;22;20425;-44
2024/01/14 09:48:41;;;;;;;38.10;13.75;;;;;;;;;;6284297;22;20023;-45
2024/01/14 09:51:10;;;;;;;43.42;14.65;;;;;;;;;;6278291;22;20350;-43
2024/01/14 09:53:37;;;;;;;40.60;13.50;;;;;;;;;;6280291;22;20065;-46
2024/01/14 09:56:07;;;;;;;35.53;12.90;;;;;;;;;;6281537;22;20092;-47
2024/01/14 09:58:36;;;;;;;39.83;13.75;;;;;;;;;;6282914;22;20393;-45
2024/01/14 10:01:05;;;;;;;38.92;12.57;;;;;;;;;;6259280;22;20494;-44
2024/01/14 10:03:32;;;;;;;37.95;12.88;;;;;;;;;;6281489;22;20026;-46
2024/01/14 10:06:02;;;;;;;30.70;11.57;;;;;;;;;;6286706;22;20015;-44
2024/01/14 10:08:30;;;;;;;32.23;12.13;;;;;;;;;;6266908;22;20463;-45
2024/01/14 10:10:58;;;;;;;33.55;12.77;;;;;;;;;;6288389;22;20019;-45
2024/01/14 10:13:26;;;;;;;32.63;11.43;;;;;;;;;;6278063;22;20487;-47
2024/01/14 10:15:54;;;;;;;33.53;12.82;;;;;;;;;;6283780;22;20022;-46
2024/01/14 10:18:26;;;;;;;31.42;11.88;;;;;;;;;;6278209;22;20098;-45
2024/01/14 10:20:54;;;;;;;32.90;11.40;;;;;;;;;;6283884;22;20024;-45
2024/01/14 10:23:23;;;;;;;31.55;12.25;;;;;;;;;;6275382;22;20011;-45
2024/01/14 10:25:52;;;;;;;32.08;11.10;;;;;;;;;;6255238;22;20035;-46
2024/01/14 10:28:20;;;;;;;26.30;10.30;;;;;;;;;;6272580;22;20023;-45
2024/01/14 10:30:47;;;;;;;29.38;10.32;;;;;;;;;;6281964;22;20110;-45
2024/01/14 10:33:15;;;;;;;27.23;8.93;;;;;;;;;;6248403;22;20022;-45
2024/01/14 10:35:51;;;;;;;26.08;9.43;;;;;;;;;;6242656;22;20098;-47
2024/01/14 10:38:21;;;;;;;26.95;9.63;;;;;;;;;;6279798;22;20033;-45
2024/01/14 10:40:50;;;;;;;23.80;8.43;;;;;;;;;;6252269;22;20015;-48
2024/01/14 10:43:18;;;;;;;26.05;9.98;;;;;;;;;;6282314;22;20127;-47
2024/01/14 10:45:47;;;;;;;25.37;7.93;;;;;;;;;;6280370;22;20869;-45
2024/01/14 10:48:16;;;;;;;22.92;7.13;;;;;;;;;;6282771;22;20441;-45
2024/01/14 10:50:45;;;;;;;22.00;8.23;;;;;;;;;;6280268;22;20054;-44
2024/01/14 10:53:16;;;;;;;23.75;8.45;;;;;;;;;;6274792;22;20019;-45
2024/01/14 10:55:46;;;;;;;19.48;7.38;;;;;;;;;;6270100;22;20342;-48
2024/01/14 10:58:22;;;;;;;23.77;7.70;;;;;;;;;;6280403;22;20019;-44
2024/01/14 11:00:51;;;;;;;18.85;6.43;;;;;;;;;;6278882;22;20112;-45
2024/01/14 11:03:19;;;;;;;19.58;6.40;;;;;;;;;;6286617;22;20015;-46
2024/01/14 11:05:47;;;;;;;23.02;6.65;;;;;;;;;;6279347;22;20019;-45
2024/01/14 11:08:17;;;;;;;18.25;7.22;;;;;;;;;;6283933;22;20015;-46
2024/01/14 11:10:45;;;;;;;17.87;6.40;;;;;;;;;;6284297;22;20015;-45
2024/01/14 11:13:22;;;;;;;16.73;5.65;;;;;;;;;;6282582;22;20026;-47
2024/01/14 11:15:53;;;;;;;16.17;5.85;;;;;;;;;;6281928;22;20103;-46
2024/01/14 11:18:23;;;;;;;15.45;5.18;;;;;;;;;;6246015;22;20023;-45
2024/01/14 11:20:54;;;;;;;18.65;5.85;;;;;;;;;;6284426;22;20016;-45
2024/01/14 11:23:41;;;;;;;13.77;5.23;;;;;;;;;;6274703;22;20095;-46
2024/01/14 11:26:09;;;;;;;15.50;5.80;;;;;;;;;;6281473;22;20019;-46
2024/01/14 11:28:38;;;;;;;17.10;6.70;;;;;;;;;;6278211;22;20019;-47
2024/01/14 11:31:07;;;;;;;16.88;6.15;;;;;;;;;;6285046;22;20029;-46
2024/01/14 11:33:46;;;;;;;18.92;6.32;;;;;;;;;;6260450;22;20019;-48
2024/01/14 11:36:34;;;;;;;17.17;6.23;;;;;;;;;;6271622;22;20019;-46
2024/01/14 11:39:05;;;;;;;16.20;6.20;;;;;;;;;;6283795;22;20015;-45
2024/01/14 11:41:35;;;;;;;17.85;5.85;;;;;;;;;;6250708;22;20043;-45
2024/01/14 11:44:05;;;;;;;18.83;6.80;;;;;;;;;;6282338;22;20102;-45
2024/01/14 11:46:36;;;;;;;15.65;6.00;;;;;;;;;;6244782;22;20023;-45
2024/01/14 11:49:08;;;;;;;19.17;6.07;;;;;;;;;;6283584;22;20029;-46
2024/01/14 11:51:57;;;;;;;15.77;5.60;;;;;;;;;;6288337;22;20023;-45
2024/01/14 11:54:25;;;;;;;16.42;6.05;;;;;;;;;;6276578;22;20034;-46
2024/01/14 11:56:52;;;;;;;13.00;5.10;;;;;;;;;;6287983;22;20042;-45
2024/01/14 11:59:21;;;;;;;13.50;4.65;;;;;;;;;;6279746;22;20054;-45
2024/01/14 12:02:14;;;;;;;13.97;5.40;;;;;;;;;;6249564;22;20070;-46
2024/01/14 12:04:42;;;;;;;12.75;3.38;;;;;;;;;;6287061;22;20039;-46
2024/01/14 12:07:21;;;;;;;12.30;4.43;;;;;;;;;;6277766;22;20023;-46
2024/01/14 12:09:53;;;;;;;10.48;3.65;;;;;;;;;;6286821;22;20053;-44
2024/01/14 12:12:24;;;;;;;10.10;2.58;;;;;;;;;;6285958;22;20077;-46
2024/01/14 12:14:54;;;;;;;9.40;2.43;;;;;;;;;;6277479;22;20038;-45
2024/01/14 12:17:22;;;;;;;7.00;1.60;;;;;;;;;;6285803;22;20015;-45
2024/01/14 12:19:56;;;;;;;8.65;1.90;;;;;;;;;;6248808;22;20441;-47
2024/01/14 12:22:24;;;;;;;6.38;1.77;;;;;;;;;;6256985;22;20050;-46
2024/01/14 12:24:51;;;;;;;8.30;2.47;;;;;;;;;;6279423;22;20015;-45
2024/01/14 12:27:19;;;;;;;6.00;1.07;;;;;;;;;;6285694;22;20346;-45
2024/01/14 12:29:47;;;;;;;7.60;2.00;;;;;;;;;;6276396;22;20392;-44
2024/01/14 12:32:23;;;;;;;5.15;0.95;;;;;;;;;;6278034;22;20015;-45
2024/01/14 12:34:51;;;;;;;4.45;0.63;;;;;;;;;;6259123;22;20030;-47
2024/01/14 12:37:22;;;;;;;9.35;1.45;;;;;;;;;;6277716;22;20034;-44
2024/01/14 12:39:50;;;;;;;4.53;0.63;;;;;;;;;;6277267;22;20221;-48
2024/01/14 12:42:18;;;;;;;7.10;1.40;;;;;;;;;;6280668;22;20079;-43
2024/01/14 12:44:47;;;;;;;13.95;2.63;;;;;;;;;;6284245;22;20061;-46
2024/01/14 12:47:15;;;;;;;6.38;1.30;;;;;;;;;;6280044;22;20026;-45
2024/01/14 12:49:45;;;;;;;8.15;1.45;;;;;;;;;;6279952;22;20023;-45
2024/01/14 12:52:13;;;;;;;10.67;1.77;;;;;;;;;;6276384;22;20011;-45
2024/01/14 12:54:47;;;;;;;10.43;2.13;;;;;;;;;;6284545;22;20023;-45
2024/01/14 12:57:15;;;;;;;7.40;0.93;;;;;;;;;;6250990;22;20039;-45
2024/01/14 12:59:50;;;;;;;6.32;1.02;;;;;;;;;;6283572;22;20025;-45
2024/01/14 13:02:18;;;;;;;5.45;0.80;;;;;;;;;;6276513;22;20019;-45
2024/01/14 13:04:48;;;;;;;4.60;0.80;;;;;;;;;;6281437;22;20107;-44
2024/01/14 13:07:16;;;;;;;5.68;1.20;;;;;;;;;;6274142;22;20043;-44
2024/01/14 13:09:44;;;;;;;4.95;0.70;;;;;;;;;;6285141;22;20019;-44
2024/01/14 13:12:11;;;;;;;5.70;1.10;;;;;;;;;;6274413;22;20023;-45
2024/01/14 13:14:39;;;;;;;5.75;0.90;;;;;;;;;;6280616;22;20026;-45
2024/01/14 13:17:07;;;;;;;4.83;0.80;;;;;;;;;;6282105;22;20015;-45
2024/01/14 13:19:35;;;;;;;5.80;1.38;;;;;;;;;;6284630;22;20007;-45
2024/01/14 13:22:05;;;;;;;5.55;0.80;;;;;;;;;;6275230;22;20019;-45
2024/01/14 13:24:33;;;;;;;4.18;0.88;;;;;;;;;;6283202;22;20623;-45
2024/01/14 13:27:01;;;;;;;4.63;0.73;;;;;;;;;;6281436;22;20019;-44
2024/01/14 13:29:28;;;;;;;6.63;1.30;;;;;;;;;;6276830;22;20776;-44
2024/01/14 13:31:57;;;;;;;6.53;1.13;;;;;;;;;;6285399;22;20684;-45
2024/01/14 13:34:25;;;;;;;5.38;0.57;;;;;;;;;;6180235;22;20069;-42
2024/01/14 13:36:54;;;;;;;4.75;0.70;;;;;;;;;;6278144;22;20019;-46
2024/01/14 13:39:23;;;;;;;4.03;0.60;;;;;;;;;;6275187;22;20034;-48
2024/01/14 13:41:51;;;;;;;5.23;1.00;;;;;;;;;;6285251;22;20015;-45
2024/01/14 13:44:19;;;;;;;4.40;0.95;;;;;;;;;;6277003;22;20347;-46
2024/01/14 13:46:46;;;;;;;4.78;1.30;;;;;;;;;;6283058;22;20019;-44
2024/01/14 13:49:15;;;;;;;5.40;1.23;;;;;;;;;;6275750;22;20015;-44
2024/01/14 13:51:43;;;;;;;4.53;1.02;;;;;;;;;;6268273;22;20445;-46
2024/01/14 13:54:11;;;;;;;3.50;0.80;;;;;;;;;;6274437;22;20469;-42
2024/01/14 13:56:44;;;;;;;5.55;0.77;;;;;;;;;;6286965;22;20042;-45
2024/01/14 13:59:12;;;;;;;4.85;0.65;;;;;;;;;;6278890;22;20011;-42
2024/01/14 14:01:40;;;;;;;3.45;0.68;;;;;;;;;;6253247;22;20026;-42
2024/01/14 14:04:08;;;;;;;6.25;1.02;;;;;;;;;;6275979;22;20087;-45
2024/01/14 14:09:24;;;;;;;3.33;0.50;;;;;;;;;;6257386;22;20498;-45
2024/01/14 14:11:54;;;;;;;3.97;0.60;;;;;;;;;;6278045;22;20722;-44
2024/01/14 14:14:22;;;;;;;6.03;0.50;;;;;;;;;;6261312;22;20012;-45
2024/01/14 14:16:50;;;;;;;4.07;0.50;;;;;;;;;;6261422;22;20796;-44
2024/01/14 14:19:18;;;;;;;4.23;0.60;;;;;;;;;;6287523;22;20495;-43
2024/01/14 14:21:46;;;;;;;3.60;0.57;;;;;;;;;;6246663;22;20110;-44
2024/01/14 14:24:26;;;;;;;3.30;0.68;;;;;;;;;;6287695;22;20015;-44
2024/01/14 14:26:56;;;;;;;3.92;0.52;;;;;;;;;;6281060;22;20025;-44
2024/01/14 14:29:25;;;;;;;2.53;0.50;;;;;;;;;;6285875;22;20026;-44
2024/01/14 14:31:54;;;;;;;4.80;1.20;;;;;;;;;;6284697;22;20019;-44
2024/01/14 14:34:23;;;;;;;3.67;0.40;;;;;;;;;;6228553;22;20019;-44
2024/01/14 14:36:52;;;;;;;4.15;0.60;;;;;;;;;;6275732;22;20440;-44